Time;durP1;ratioP1;P1;durP2;ratioP2;P2;SDS_P1;SDS_P2;PMS_P1;PMS_P2;Temp;Humidity;BMP_temperature;BMP_pressure;BME280_temperature;BME280_humidity;BME280_pressure;Samples;Min_cycle;Max_cycle;Signal;HPM_P1;HPM_P2
2022/10/23 00:00:59;;;;;;;;;2.67;2.00;;;;;16.99;100.00;100659.47;4945506;28;45438;-72
2022/10/23 00:03:25;;;;;;;;;6.33;4.67;;;;;17.01;100.00;100657.41;4964304;28;45180;-72
2022/10/23 00:05:50;;;;;;;;;4.00;3.33;;;;;17.01;100.00;100661.94;4944905;28;46004;-72
2022/10/23 00:08:16;;;;;;;;;4.00;4.00;;;;;17.08;100.00;100659.22;4940790;28;45339;-72
2022/10/23 00:10:42;;;;;;;;;2.00;2.00;;;;;17.07;100.00;100649.53;4941032;28;45306;-72
2022/10/23 00:13:08;;;;;;;;;2.33;2.33;;;;;17.06;100.00;100651.34;4941027;28;45340;-72
2022/10/23 00:15:35;;;;;;;;;3.00;3.00;;;;;17.09;100.00;100658.19;4940671;28;45375;-72
2022/10/23 00:18:01;;;;;;;;;3.00;3.00;;;;;17.08;100.00;100643.09;4940644;28;46370;-72
2022/10/23 00:20:26;;;;;;;;;2.67;2.67;;;;;17.05;100.00;100641.66;4940882;28;45241;-72
2022/10/23 00:22:51;;;;;;;;;3.00;3.00;;;;;17.08;100.00;100646.63;4950983;28;45325;-72
2022/10/23 00:25:17;;;;;;;;;3.33;3.00;;;;;17.09;100.00;100645.56;4943992;28;45394;-72
2022/10/23 00:27:43;;;;;;;;;5.00;5.00;;;;;17.09;100.00;100642.09;4940795;28;45882;-72
2022/10/23 00:30:09;;;;;;;;;2.33;2.33;;;;;17.07;100.00;100633.41;4940721;28;45337;-72
2022/10/23 00:32:34;;;;;;;;;4.00;4.00;;;;;17.06;100.00;100637.13;4958644;28;45307;-72
2022/10/23 00:34:59;;;;;;;;;6.00;4.00;;;;;17.09;100.00;100639.41;4958747;28;47303;-72
2022/10/23 00:37:25;;;;;;;;;5.67;4.00;;;;;17.08;100.00;100637.72;4941435;28;57629;-73
2022/10/23 00:39:50;;;;;;;;;3.00;3.00;;;;;17.00;100.00;100628.88;4940726;28;45168;-72
2022/10/23 00:42:17;;;;;;;;;3.67;3.67;;;;;17.06;100.00;100629.88;4940756;28;45710;-73
2022/10/23 00:44:43;;;;;;;;;2.67;2.33;;;;;17.08;100.00;100637.72;4947616;28;46241;-72
2022/10/23 00:47:09;;;;;;;;;3.00;3.00;;;;;17.08;100.00;100622.44;4945338;28;46708;-72
2022/10/23 00:49:35;;;;;;;;;7.00;5.00;;;;;17.09;100.00;100617.91;4940803;28;45359;-71
2022/10/23 00:52:03;;;;;;;;;4.00;3.00;;;;;17.11;100.00;100613.97;4940579;28;45300;-72
2022/10/23 00:54:33;;;;;;;;;4.33;4.33;;;;;17.12;100.00;100612.91;4957476;28;46313;-73
2022/10/23 00:57:01;;;;;;;;;3.67;3.67;;;;;17.08;100.00;100608.19;4948642;28;45325;-72
2022/10/23 00:59:28;;;;;;;;;3.00;3.00;;;;;17.12;100.00;100612.09;4940299;28;45330;-72
2022/10/23 01:01:54;;;;;;;;;4.00;3.00;;;;;17.10;100.00;100606.13;4953491;28;45309;-72
2022/10/23 01:04:21;;;;;;;;;4.00;4.00;;;;;17.11;100.00;100597.84;4944831;28;45498;-73
2022/10/23 01:06:49;;;;;;;;;3.00;3.00;;;;;17.12;100.00;100602.16;4943512;28;45269;-72
2022/10/23 01:09:22;;;;;;;;;4.00;4.00;;;;;17.11;100.00;100588.97;4943311;28;45425;-72
2022/10/23 01:11:56;;;;;;;;;4.00;4.00;;;;;17.03;100.00;100577.44;4944008;28;45428;-71
2022/10/23 01:14:41;;;;;;;;;6.00;5.00;;;;;17.11;100.00;100599.69;4943397;28;45349;-72
2022/10/23 01:17:14;;;;;;;;;3.00;3.00;;;;;17.04;100.00;100579.06;4943318;28;45543;-73
2022/10/23 01:20:31;;;;;;;;;3.33;2.67;;;;;17.10;100.00;100579.28;4955653;28;45309;-72
2022/10/23 01:23:16;;;;;;;;;3.00;3.00;;;;;17.08;100.00;100574.13;4935940;28;45383;-72
2022/10/23 01:25:51;;;;;;;;;3.00;3.00;;;;;17.10;100.00;100566.69;4943505;28;45564;-72
2022/10/23 01:28:29;;;;;;;;;3.33;3.33;;;;;17.12;100.00;100558.41;4956077;28;46459;-72
2022/10/23 01:30:58;;;;;;;;;5.33;2.67;;;;;17.12;100.00;100544.97;4956044;28;45337;-73
2022/10/23 01:33:34;;;;;;;;;3.00;3.00;;;;;17.15;100.00;100539.97;4943439;28;45352;-73
2022/10/23 01:36:07;;;;;;;;;3.33;3.33;;;;;17.16;100.00;100535.44;4943423;28;45247;-72
2022/10/23 01:39:07;;;;;;;;;5.00;4.67;;;;;17.20;100.00;100528.56;4942876;28;47219;-72
2022/10/23 01:41:49;;;;;;;;;3.00;2.33;;;;;17.19;100.00;100524.25;4968105;28;45432;-72
2022/10/23 01:44:36;;;;;;;;;3.00;3.00;;;;;17.23;100.00;100527.28;4944471;28;45170;-73
2022/10/23 01:47:04;;;;;;;;;4.67;4.33;;;;;17.21;100.00;100515.97;4942794;28;45341;-72
2022/10/23 01:49:31;;;;;;;;;3.00;3.00;;;;;17.20;100.00;100506.25;4968441;28;45427;-73
2022/10/23 01:52:00;;;;;;;;;4.00;4.00;;;;;17.24;100.00;100507.47;4942969;28;45231;-73
2022/10/23 01:54:32;;;;;;;;;3.67;3.67;;;;;17.23;100.00;100490.53;4942976;28;45302;-72
2022/10/23 01:56:59;;;;;;;;;3.00;3.00;;;;;17.22;100.00;100494.25;4942904;28;45211;-72
2022/10/23 01:59:31;;;;;;;;;3.00;3.00;;;;;17.25;100.00;100499.19;4942713;28;45416;-72
2022/10/23 02:01:59;;;;;;;;;4.00;4.00;;;;;17.28;100.00;100501.41;4947553;28;45408;-72
2022/10/23 02:04:32;;;;;;;;;4.00;2.67;;;;;17.26;100.00;100499.97;4942833;28;45230;-72
2022/10/23 02:06:58;;;;;;;;;3.00;3.00;;;;;17.24;100.00;100494.03;4942364;28;45250;-73
2022/10/23 02:09:24;;;;;;;;;5.00;3.33;;;;;17.25;100.00;100482.25;4942481;28;45226;-72
2022/10/23 02:12:12;;;;;;;;;5.00;4.00;;;;;17.28;100.00;100493.38;4942919;28;45385;-73
2022/10/23 02:14:59;;;;;;;;;2.67;2.67;;;;;17.30;100.00;100490.44;4954746;28;45478;-72
2022/10/23 02:17:48;;;;;;;;;3.67;3.00;;;;;17.26;100.00;100482.03;4942444;28;45473;-73
2022/10/23 02:20:45;;;;;;;;;5.00;4.00;;;;;17.24;100.00;100481.41;4947938;28;47508;-72
2022/10/23 02:23:21;;;;;;;;;3.33;3.33;;;;;17.24;100.00;100469.88;4953271;28;45230;-72
2022/10/23 02:26:09;;;;;;;;;6.00;3.67;;;;;17.29;100.00;100470.00;4955828;28;45329;-72
2022/10/23 02:28:52;;;;;;;;;4.00;3.00;;;;;17.21;100.00;100455.00;4942424;28;45281;-72
2022/10/23 02:31:21;;;;;;;;;6.00;6.00;;;;;17.24;100.00;100454.56;4942148;28;45431;-72
2022/10/23 02:33:46;;;;;;;;;6.00;6.00;;;;;17.30;100.00;100468.94;4942247;28;45362;-72
2022/10/23 02:36:13;;;;;;;;;4.00;4.00;;;;;17.31;100.00;100467.09;4942488;28;45237;-73
2022/10/23 02:38:42;;;;;;;;;9.00;7.00;;;;;17.32;100.00;100455.28;4954165;28;45687;-72
2022/10/23 02:41:22;;;;;;;;;4.00;4.00;;;;;17.34;100.00;100445.16;4942246;28;46273;-72
2022/10/23 02:44:02;;;;;;;;;5.33;4.33;;;;;17.34;100.00;100435.25;4942188;28;45195;-73
2022/10/23 02:46:32;;;;;;;;;5.00;5.00;;;;;17.35;100.00;100439.56;4965477;28;45413;-71
2022/10/23 02:49:12;;;;;;;;;4.00;4.00;;;;;17.37;100.00;100440.16;4946321;28;45204;-71
2022/10/23 02:51:56;;;;;;;;;5.33;5.33;;;;;17.40;100.00;100446.94;4941965;28;45742;-72
2022/10/23 02:54:32;;;;;;;;;6.00;6.00;;;;;17.40;100.00;100433.50;4941909;28;45355;-72
2022/10/23 02:57:00;;;;;;;;;6.33;6.33;;;;;17.39;100.00;100427.31;4942228;28;45361;-71
2022/10/23 02:59:46;;;;;;;;;5.00;5.00;;;;;17.38;100.00;100416.78;4941772;28;45409;-71
2022/10/23 03:02:20;;;;;;;;;5.67;5.67;;;;;17.44;100.00;100425.78;4946556;28;45411;-72
2022/10/23 03:04:46;;;;;;;;;5.33;5.33;;;;;17.40;100.00;100412.00;4959335;28;45500;-71
2022/10/23 03:07:13;;;;;;;;;3.67;3.67;;;;;17.43;100.00;100419.63;4948261;28;45220;-72
2022/10/23 03:09:39;;;;;;;;;6.00;6.00;;;;;17.45;100.00;100422.06;4941672;28;45340;-71
2022/10/23 03:12:04;;;;;;;;;4.67;4.67;;;;;17.42;100.00;100421.47;4949607;28;56306;-71
2022/10/23 03:14:29;;;;;;;;;6.67;6.67;;;;;17.49;100.00;100416.03;4944546;28;45254;-71
2022/10/23 03:16:55;;;;;;;;;6.00;6.00;;;;;17.45;100.00;100393.31;4941674;28;45299;-71
2022/10/23 03:19:20;;;;;;;;;5.00;5.00;;;;;17.45;100.00;100393.31;4941591;28;46521;-71
2022/10/23 03:21:45;;;;;;;;;5.33;5.00;;;;;17.45;100.00;100395.22;4942886;28;47325;-72
2022/10/23 03:24:10;;;;;;;;;7.00;7.00;;;;;17.48;100.00;100394.75;4959570;28;46387;-72
2022/10/23 03:26:36;;;;;;;;;6.33;6.33;;;;;17.48;100.00;100392.06;4947461;28;45325;-72
2022/10/23 03:29:01;;;;;;;;;6.00;6.00;;;;;17.50;100.00;100385.41;4941232;28;45351;-72
2022/10/23 03:31:26;;;;;;;;;7.00;5.67;;;;;17.51;100.00;100395.09;4941309;28;45378;-71
2022/10/23 03:33:52;;;;;;;;;5.67;5.33;;;;;17.53;100.00;100387.66;4940054;28;45770;-71
2022/10/23 03:36:17;;;;;;;;;6.00;6.00;;;;;17.57;100.00;100379.13;4948766;28;50351;-71
2022/10/23 03:38:42;;;;;;;;;5.67;5.00;;;;;17.60;100.00;100387.53;4945910;28;45240;-72
2022/10/23 03:41:08;;;;;;;;;7.00;7.00;;;;;17.59;100.00;100375.16;4941351;28;45313;-72
2022/10/23 03:43:33;;;;;;;;;8.67;6.67;;;;;17.60;100.00;100367.94;4952712;28;45818;-72
2022/10/23 03:45:59;;;;;;;;;7.33;6.67;;;;;17.60;100.00;100375.97;4942158;28;45352;-72
2022/10/23 03:48:25;;;;;;;;;6.33;6.33;;;;;17.60;100.00;100382.16;4941260;28;45437;-71
2022/10/23 03:50:51;;;;;;;;;8.00;8.00;;;;;17.61;100.00;100380.31;4941060;28;46066;-72
2022/10/23 03:53:16;;;;;;;;;7.00;7.00;;;;;17.59;100.00;100368.94;4941036;28;45337;-72
2022/10/23 03:55:43;;;;;;;;;8.00;7.00;;;;;17.60;100.00;100365.25;4941234;28;45354;-72
2022/10/23 03:58:08;;;;;;;;;7.33;7.33;;;;;17.62;100.00;100360.44;4946478;28;46223;-72
2022/10/23 04:00:33;;;;;;;;;8.00;6.33;;;;;17.62;100.00;100352.38;4951382;28;46284;-72
2022/10/23 04:02:59;;;;;;;;;10.00;9.00;;;;;17.63;100.00;100352.16;4941703;28;51422;-72
2022/10/23 04:05:24;;;;;;;;;7.00;7.00;;;;;17.70;100.00;100360.13;4941099;28;45449;-72
2022/10/23 04:07:49;;;;;;;;;8.33;8.00;;;;;17.70;100.00;100357.44;4953119;28;55661;-72
2022/10/23 04:10:15;;;;;;;;;6.33;5.00;;;;;17.72;100.00;100359.88;4940719;28;49120;-72
2022/10/23 04:12:40;;;;;;;;;7.00;7.00;;;;;17.73;100.00;100356.97;4940917;28;45348;-72
2022/10/23 04:15:06;;;;;;;;;8.00;8.00;;;;;17.71;100.00;100342.94;4941052;28;45182;-71
2022/10/23 04:17:31;;;;;;;;;6.00;6.00;;;;;17.74;100.00;100350.53;4940688;28;45391;-71
2022/10/23 04:19:56;;;;;;;;;6.33;6.33;;;;;17.76;100.00;100355.69;4940568;28;45297;-72
2022/10/23 04:22:22;;;;;;;;;7.33;7.00;;;;;17.75;100.00;100346.00;4946729;28;48782;-72
2022/10/23 04:24:47;;;;;;;;;8.00;7.00;;;;;17.76;100.00;100359.19;4947959;28;50976;-72
2022/10/23 04:27:13;;;;;;;;;5.67;5.67;;;;;17.78;100.00;100354.38;4957002;28;45978;-71
2022/10/23 04:29:38;;;;;;;;;4.67;4.67;;;;;17.75;100.00;100333.34;4949963;28;46355;-72
2022/10/23 04:32:03;;;;;;;;;4.00;4.00;;;;;17.81;100.00;100349.59;4940383;28;45261;-71
2022/10/23 04:34:29;;;;;;;;;7.67;7.67;;;;;17.83;100.00;100352.88;4940831;28;45663;-71
2022/10/23 04:36:54;;;;;;;;;7.67;7.67;;;;;17.82;100.00;100348.56;4939137;28;49153;-72
2022/10/23 04:39:19;;;;;;;;;12.67;8.00;;;;;17.81;100.00;100349.59;4942899;28;46668;-72
2022/10/23 04:41:45;;;;;;;;;10.00;9.00;;;;;17.80;100.00;100362.22;4944115;28;45430;-72
2022/10/23 04:44:10;;;;;;;;;5.67;5.67;;;;;17.82;100.00;100372.75;4944027;28;45328;-72
2022/10/23 04:46:35;;;;;;;;;9.33;8.00;;;;;17.77;100.00;100360.81;4943684;28;48667;-71
2022/10/23 04:49:01;;;;;;;;;8.00;8.00;;;;;17.82;100.00;100362.81;4972689;28;47654;-71
2022/10/23 04:51:26;;;;;;;;;9.33;7.33;;;;;17.76;100.00;100337.69;4944071;28;45241;-71
2022/10/23 04:53:51;;;;;;;;;7.67;7.33;;;;;17.74;100.00;100331.72;4943866;28;45473;-71
2022/10/23 04:56:17;;;;;;;;;7.33;7.33;;;;;17.82;100.00;100338.63;4949354;28;45660;-72
2022/10/23 04:58:42;;;;;;;;;9.33;8.67;;;;;17.78;100.00;100330.19;4951976;28;45265;-73
2022/10/23 05:01:09;;;;;;;;;9.00;6.00;;;;;17.85;100.00;100334.66;4959069;28;45771;-72
2022/10/23 05:03:35;;;;;;;;;5.67;5.67;;;;;17.84;100.00;100331.13;4953944;28;45276;-72
2022/10/23 05:06:01;;;;;;;;;8.00;7.00;;;;;17.77;100.00;100315.13;4943411;28;45648;-71
2022/10/23 05:08:27;;;;;;;;;7.33;6.67;;;;;17.83;100.00;100323.28;4943389;28;45358;-71
2022/10/23 05:10:52;;;;;;;;;7.00;7.00;;;;;17.87;100.00;100332.56;4943644;28;45350;-71
2022/10/23 05:13:18;;;;;;;;;9.00;8.67;;;;;17.82;100.00;100327.88;4961400;28;45448;-72
2022/10/23 05:15:49;;;;;;;;;9.00;7.00;;;;;17.85;100.00;100337.34;4951291;28;45294;-72
2022/10/23 05:18:34;;;;;;;;;10.33;9.00;;;;;17.89;100.00;100350.06;4943103;28;45349;-72
2022/10/23 05:21:07;;;;;;;;;9.00;9.00;;;;;17.90;100.00;100357.09;4943373;28;45345;-72
2022/10/23 05:23:35;;;;;;;;;7.67;7.00;;;;;17.88;100.00;100343.06;4957050;28;45440;-71
2022/10/23 05:26:02;;;;;;;;;9.67;9.67;;;;;17.92;100.00;100340.72;4943502;28;45489;-72
2022/10/23 05:28:27;;;;;;;;;6.67;6.67;;;;;17.93;100.00;100331.63;4943204;28;46052;-72
2022/10/23 05:30:53;;;;;;;;;9.33;9.33;;;;;17.87;100.00;100327.19;4944867;28;45426;-72
2022/10/23 05:33:18;;;;;;;;;8.33;7.33;;;;;17.89;100.00;100346.56;4949759;28;45272;-72
2022/10/23 05:35:44;;;;;;;;;7.67;6.67;;;;;17.91;100.00;100349.84;4944387;28;45385;-72
2022/10/23 05:38:10;;;;;;;;;7.33;7.33;;;;;17.91;100.00;100328.34;4947042;28;45265;-72
2022/10/23 05:40:36;;;;;;;;;8.00;7.33;;;;;17.91;100.00;100313.03;4946366;28;45338;-71
2022/10/23 05:43:01;;;;;;;;;6.00;6.00;;;;;17.96;100.00;100324.97;4945879;28;45170;-74
2022/10/23 05:45:26;;;;;;;;;7.00;6.00;;;;;17.99;100.00;100327.97;4959705;28;47323;-74
2022/10/23 05:47:52;;;;;;;;;5.33;5.33;;;;;17.94;100.00;100301.00;4949815;28;47315;-75
2022/10/23 05:50:18;;;;;;;;;6.67;6.00;;;;;17.92;100.00;100298.53;4949580;28;45235;-74
2022/10/23 05:52:46;;;;;;;;;9.33;9.00;;;;;17.95;100.00;100293.72;4942609;28;46529;-74
2022/10/23 05:55:12;;;;;;;;;7.33;7.33;;;;;17.96;100.00;100284.63;4942932;28;45360;-74
2022/10/23 05:57:37;;;;;;;;;8.33;7.67;;;;;17.93;100.00;100285.94;4955274;28;47300;-74
2022/10/23 06:00:04;;;;;;;;;7.00;7.00;;;;;17.94;100.00;100282.19;4949858;28;45783;-73
2022/10/23 06:02:29;;;;;;;;;10.00;9.00;;;;;17.96;100.00;100276.56;4947780;28;45338;-75
2022/10/23 06:04:54;;;;;;;;;7.00;7.00;;;;;17.97;100.00;100281.72;4942699;28;45458;-73
2022/10/23 06:07:24;;;;;;;;;6.00;6.00;;;;;17.98;100.00;100279.81;4942270;28;45420;-73
2022/10/23 06:09:51;;;;;;;;;7.00;5.67;;;;;17.96;100.00;100285.44;4942692;28;45585;-72
2022/10/23 06:12:17;;;;;;;;;14.33;11.00;;;;;17.92;100.00;100273.53;4952653;28;45383;-72
2022/10/23 06:14:42;;;;;;;;;18.33;16.00;;;;;17.94;100.00;100284.03;4944838;28;45684;-71
2022/10/23 06:17:08;;;;;;;;;8.67;8.67;;;;;17.92;100.00;100286.97;4949631;28;58958;-73
2022/10/23 06:19:33;;;;;;;;;5.00;3.33;;;;;17.91;100.00;100282.66;4952896;28;45283;-72
2022/10/23 06:21:58;;;;;;;;;9.00;9.00;;;;;17.89;100.00;100284.75;4958137;28;45306;-72
2022/10/23 06:24:24;;;;;;;;;11.00;9.67;;;;;17.84;100.00;100277.38;4952961;28;48608;-72
2022/10/23 06:26:49;;;;;;;;;12.00;11.00;;;;;17.88;100.00;100283.09;4954607;28;48609;-72
2022/10/23 06:29:15;;;;;;;;;8.00;8.00;;;;;17.76;100.00;100275.06;4942384;28;45364;-71
2022/10/23 06:31:40;;;;;;;;;7.67;7.67;;;;;17.83;100.00;100285.66;4942516;28;45601;-72
2022/10/23 06:34:05;;;;;;;;;7.67;7.67;;;;;17.83;100.00;100275.75;4942073;28;45445;-72
2022/10/23 06:36:31;;;;;;;;;11.00;10.00;;;;;17.83;100.00;100272.22;4942332;28;45348;-72
2022/10/23 06:38:56;;;;;;;;;7.67;6.67;;;;;17.85;100.00;100272.81;4941958;28;45236;-72
2022/10/23 06:41:22;;;;;;;;;7.33;7.33;;;;;17.82;100.00;100263.38;4946603;28;45323;-72
2022/10/23 06:43:49;;;;;;;;;13.33;9.67;;;;;17.82;100.00;100258.00;4942178;28;45290;-72
2022/10/23 06:46:16;;;;;;;;;14.67;8.00;;;;;17.84;100.00;100257.75;4942001;28;45358;-72
2022/10/23 06:48:42;;;;;;;;;7.67;7.67;;;;;17.83;100.00;100253.41;4942194;28;45376;-72
2022/10/23 06:51:11;;;;;;;;;4.00;3.33;;;;;17.82;100.00;100257.16;4942070;28;45306;-73
2022/10/23 06:53:37;;;;;;;;;8.00;7.33;;;;;17.75;100.00;100268.06;4942082;28;45306;-73
2022/10/23 06:56:05;;;;;;;;;8.00;8.00;;;;;17.73;100.00;100270.97;4941818;28;45438;-72
2022/10/23 06:58:32;;;;;;;;;10.00;9.00;;;;;17.77;100.00;100274.81;4942025;28;45417;-72
2022/10/23 07:01:03;;;;;;;;;10.00;10.00;;;;;17.77;100.00;100272.13;4946442;28;45513;-72
2022/10/23 07:03:29;;;;;;;;;8.33;8.33;;;;;17.78;100.00;100272.97;4965454;28;47026;-71
2022/10/23 07:05:54;;;;;;;;;6.67;6.67;;;;;17.74;100.00;100266.38;4955011;28;46434;-72
2022/10/23 07:08:20;;;;;;;;;7.67;7.00;;;;;17.77;100.00;100258.69;4946252;28;51251;-72
2022/10/23 07:10:46;;;;;;;;;8.00;7.00;;;;;17.79;100.00;100256.59;4965070;28;45212;-71
2022/10/23 07:13:12;;;;;;;;;8.00;8.00;;;;;17.76;100.00;100256.25;4950400;28;46439;-72
2022/10/23 07:15:38;;;;;;;;;7.33;7.33;;;;;17.79;100.00;100253.91;4941315;28;45390;-72
2022/10/23 07:18:04;;;;;;;;;11.00;11.00;;;;;17.80;100.00;100257.41;4941781;28;45355;-72
2022/10/23 07:20:30;;;;;;;;;8.33;8.33;;;;;17.73;100.00;100244.09;4953386;28;45386;-72
2022/10/23 07:22:55;;;;;;;;;7.33;7.33;;;;;17.75;100.00;100235.81;4956356;28;47214;-72
2022/10/23 07:25:22;;;;;;;;;9.33;9.33;;;;;17.84;100.00;100244.31;4941532;28;45376;-71
2022/10/23 07:27:48;;;;;;;;;9.33;8.33;;;;;17.87;100.00;100259.97;4950065;28;45347;-72
2022/10/23 07:30:14;;;;;;;;;8.67;8.33;;;;;17.85;100.00;100245.94;4948432;28;45283;-72
2022/10/23 07:32:39;;;;;;;;;9.67;8.67;;;;;17.90;100.00;100259.50;4959484;28;45401;-72
2022/10/23 07:35:06;;;;;;;;;8.33;8.33;;;;;17.94;100.00;100265.22;4941967;28;45306;-72
2022/10/23 07:37:31;;;;;;;;;9.67;8.67;;;;;17.92;100.00;100257.38;4950987;28;46384;-72
2022/10/23 07:39:56;;;;;;;;;9.00;9.00;;;;;17.90;100.00;100254.13;4943886;28;45351;-72
2022/10/23 07:42:22;;;;;;;;;8.33;8.00;;;;;17.91;100.00;100248.53;4950794;28;45424;-72
2022/10/23 07:44:47;;;;;;;;;8.33;8.00;;;;;17.98;100.00;100255.63;4957848;28;48364;-72
2022/10/23 07:47:13;;;;;;;;;9.67;8.33;;;;;17.97;100.00;100251.31;4941260;28;45451;-72
2022/10/23 07:49:38;;;;;;;;;10.00;9.00;;;;;18.01;100.00;100242.53;4941507;28;45424;-72
2022/10/23 07:52:04;;;;;;;;;10.00;7.00;;;;;18.05;100.00;100241.00;4943192;28;45462;-72
2022/10/23 07:54:29;;;;;;;;;8.67;8.67;;;;;18.07;100.00;100245.34;4974579;28;47339;-72
2022/10/23 07:56:55;;;;;;;;;8.67;8.67;;;;;18.11;100.00;100250.03;4948439;28;45432;-72
2022/10/23 07:59:20;;;;;;;;;7.33;7.33;;;;;18.10;100.00;100255.59;4953376;28;45391;-72
2022/10/23 08:01:47;;;;;;;;;8.00;8.00;;;;;18.12;100.00;100245.47;4945729;28;45436;-72
2022/10/23 08:04:12;;;;;;;;;8.00;7.00;;;;;18.08;100.00;100218.19;4940851;28;45362;-72
2022/10/23 08:06:38;;;;;;;;;9.67;8.33;;;;;18.18;100.00;100228.41;4940998;28;45464;-72
2022/10/23 08:09:03;;;;;;;;;9.00;9.00;;;;;18.23;100.00;100231.16;4940819;28;46635;-72
2022/10/23 08:11:34;;;;;;;;;8.33;8.33;;;;;18.26;100.00;100230.69;4940838;28;45319;-72
2022/10/23 08:14:02;;;;;;;;;9.67;9.00;;;;;18.34;100.00;100232.19;4940501;28;45466;-72
2022/10/23 08:16:27;;;;;;;;;8.00;8.00;;;;;18.33;100.00;100219.00;4940517;28;45507;-71
2022/10/23 08:18:53;;;;;;;;;10.67;7.00;;;;;18.37;100.00;100218.28;4941032;28;46007;-72
2022/10/23 08:21:18;;;;;;;;;7.00;6.00;;;;;18.40;100.00;100225.03;4953057;28;46213;-72
2022/10/23 08:23:44;;;;;;;;;11.00;9.33;;;;;18.46;100.00;100224.09;4954260;28;46167;-72
2022/10/23 08:26:10;;;;;;;;;7.33;6.67;;;;;18.46;100.00;100223.28;4941041;28;45402;-72
2022/10/23 08:28:36;;;;;;;;;9.00;7.67;;;;;18.51;100.00;100224.19;4940766;28;45512;-72
2022/10/23 08:31:11;;;;;;;;;8.00;6.33;;;;;18.56;100.00;100234.25;4940696;28;45266;-72
2022/10/23 08:33:37;;;;;;;;;6.50;6.50;;;;;18.58;100.00;100239.41;4940594;28;45559;-72
2022/10/23 08:36:03;;;;;;;;;10.33;9.33;;;;;18.52;100.00;100216.94;4940849;28;45300;-71
2022/10/23 08:38:28;;;;;;;;;7.67;7.00;;;;;18.58;100.00;100225.94;4940549;28;45319;-72
2022/10/23 08:40:54;;;;;;;;;9.00;7.00;;;;;18.61;100.00;100220.88;4957673;28;46357;-72
2022/10/23 08:43:36;;;;;;;;;8.00;8.00;;;;;18.59;100.00;100216.78;4958625;28;47996;-71
2022/10/23 08:46:14;;;;;;;;;7.33;7.33;;;;;18.60;100.00;100211.19;4939735;28;45948;-72
2022/10/23 08:48:56;;;;;;;;;6.67;6.67;;;;;18.61;100.00;100202.03;4951277;28;45343;-72
2022/10/23 08:51:33;;;;;;;;;8.00;7.33;;;;;18.65;100.00;100202.38;4951532;28;46537;-72
2022/10/23 08:54:11;;;;;;;;;6.67;6.67;;;;;18.70;100.00;100209.75;4940182;28;46328;-71
2022/10/23 08:56:40;;;;;;;;;6.00;6.00;;;;;18.70;100.00;100207.84;4947229;28;45351;-72
2022/10/23 08:59:21;;;;;;;;;8.00;6.67;;;;;18.68;100.00;100199.22;4945277;28;45569;-72
2022/10/23 09:01:52;;;;;;;;;7.33;7.00;;;;;18.77;100.00;100213.88;4945156;28;45207;-72
2022/10/23 09:04:18;;;;;;;;;8.33;7.00;;;;;18.80;100.00;100224.16;4940028;28;46506;-72
2022/10/23 09:07:09;;;;;;;;;6.33;6.33;;;;;18.83;100.00;100212.13;4940279;28;45397;-72
2022/10/23 09:10:00;;;;;;;;;8.00;7.00;;;;;18.86;100.00;100210.81;4959466;28;45515;-72
2022/10/23 09:12:28;;;;;;;;;8.33;8.33;;;;;18.93;100.00;100215.00;4916832;28;46061;-72
2022/10/23 09:15:18;;;;;;;;;9.00;7.67;;;;;18.97;100.00;100207.22;4939627;28;46293;-71
2022/10/23 09:17:44;;;;;;;;;7.00;6.33;;;;;19.08;100.00;100213.63;4940107;28;46217;-72
2022/10/23 09:20:09;;;;;;;;;7.00;7.00;;;;;19.16;100.00;100221.28;4940232;28;45334;-72
2022/10/23 09:22:35;;;;;;;;;7.67;7.67;;;;;19.17;100.00;100208.66;4948001;28;46404;-72
2022/10/23 09:25:00;;;;;;;;;9.33;9.33;;;;;19.22;100.00;100197.16;4963781;28;47043;-72
2022/10/23 09:27:25;;;;;;;;;7.33;7.33;;;;;19.33;100.00;100198.94;4943366;28;45359;-72
2022/10/23 09:29:54;;;;;;;;;8.00;6.33;;;;;19.41;100.00;100203.91;4943471;28;45255;-72
2022/10/23 09:32:31;;;;;;;;;7.00;7.00;;;;;19.41;100.00;100186.91;4959672;28;47149;-73
2022/10/23 09:34:56;;;;;;;;;7.67;7.67;;;;;19.48;100.00;100192.94;4977540;28;47310;-72
2022/10/23 09:37:24;;;;;;;;;8.00;7.00;;;;;19.57;100.00;100187.16;4944765;28;45532;-73
2022/10/23 09:40:01;;;;;;;;;8.67;8.33;;;;;19.57;100.00;100192.53;4944243;28;45440;-72
2022/10/23 09:42:26;;;;;;;;;6.67;6.33;;;;;19.63;100.00;100195.03;4957774;28;45403;-72
2022/10/23 09:44:53;;;;;;;;;7.67;7.00;;;;;19.69;100.00;100201.31;4976103;28;47375;-72
2022/10/23 09:47:21;;;;;;;;;7.00;7.00;;;;;19.69;100.00;100187.84;4964593;28;45240;-71
2022/10/23 09:49:49;;;;;;;;;7.33;7.33;;;;;19.78;100.00;100194.44;4949844;28;45445;-72
2022/10/23 09:52:15;;;;;;;;;8.00;7.00;;;;;19.83;100.00;100190.16;4942684;28;45345;-72
2022/10/23 09:54:51;;;;;;;;;8.33;7.33;;;;;19.85;100.00;100183.50;4955946;28;45956;-73
2022/10/23 09:57:31;;;;;;;;;6.33;6.33;;;;;19.90;100.00;100177.31;4944858;28;45308;-72
2022/10/23 10:00:00;;;;;;;;;4.67;4.67;;;;;19.98;100.00;100179.59;4944528;28;45337;-73
2022/10/23 10:02:35;;;;;;;;;6.00;6.00;;;;;20.04;100.00;100175.09;4956871;28;46733;-72
2022/10/23 10:05:20;;;;;;;;;7.67;7.00;;;;;20.08;100.00;100178.13;4942622;28;46365;-72
2022/10/23 10:07:54;;;;;;;;;6.33;6.33;;;;;20.13;100.00;100176.28;4942582;28;45401;-72
2022/10/23 10:10:20;;;;;;;;;5.67;5.67;;;;;20.13;100.00;100168.19;4942830;28;45315;-73
2022/10/23 10:12:54;;;;;;;;;5.67;5.67;;;;;20.22;100.00;100181.22;4951189;28;46624;-72
2022/10/23 10:15:25;;;;;;;;;7.00;6.00;;;;;20.31;100.00;100169.75;4945120;28;45384;-72
2022/10/23 10:17:57;;;;;;;;;7.00;5.33;;;;;20.41;100.00;100171.72;4946646;28;45347;-72
2022/10/23 10:20:40;;;;;;;;;6.67;5.67;;;;;20.44;100.00;100173.91;4954762;28;45521;-73
2022/10/23 10:23:33;;;;;;;;;6.00;6.00;;;;;20.44;100.00;100170.41;4955209;28;47326;-72
2022/10/23 10:26:04;;;;;;;;;5.00;5.00;;;;;20.58;99.96;100172.69;4953907;28;45585;-72
2022/10/23 10:28:57;;;;;;;;;6.00;5.00;;;;;20.62;100.00;100155.72;4954455;28;46122;-72
2022/10/23 10:31:35;;;;;;;;;5.00;5.00;;;;;20.76;100.00;100166.94;4942364;28;45278;-72
2022/10/23 10:34:15;;;;;;;;;6.00;6.00;;;;;20.85;98.73;100169.97;4958819;28;47192;-72
2022/10/23 10:36:51;;;;;;;;;5.67;5.67;;;;;20.92;98.63;100167.09;4949466;28;46624;-72
2022/10/23 10:39:46;;;;;;;;;7.00;6.00;;;;;21.03;98.38;100179.59;4942031;28;45242;-72
2022/10/23 10:42:36;;;;;;;;;5.67;5.67;;;;;21.12;98.80;100166.41;4952812;28;45431;-72
2022/10/23 10:45:32;;;;;;;;;5.67;5.67;;;;;21.22;98.49;100157.56;4941682;28;45369;-72
2022/10/23 10:48:10;;;;;;;;;5.33;5.33;;;;;21.32;97.63;100135.22;4942244;28;46106;-73
2022/10/23 10:51:10;;;;;;;;;6.67;6.67;;;;;21.36;97.40;100143.59;4948654;28;45317;-72
2022/10/23 10:54:09;;;;;;;;;5.67;5.00;;;;;21.43;95.88;100144.19;4954251;28;45296;-72
2022/10/23 10:56:38;;;;;;;;;2.00;0.00;;;;;21.54;97.10;100156.69;4960778;28;45386;-71
2022/10/23 10:59:15;;;;;;;;;5.33;5.00;;;;;21.52;96.39;100133.69;4959169;28;46784;-72
2022/10/23 11:01:46;;;;;;;;;6.67;5.00;;;;;21.60;96.25;100138.59;4958988;28;45435;-72
2022/10/23 11:04:25;;;;;;;;;6.33;6.33;;;;;21.66;95.14;100137.53;4975691;28;45323;-72
2022/10/23 11:06:52;;;;;;;;;6.00;6.00;;;;;21.73;95.48;100139.19;4960216;28;45557;-72
2022/10/23 11:09:26;;;;;;;;;7.00;6.67;;;;;21.76;95.57;100133.28;4957464;28;46148;-72
2022/10/23 11:11:51;;;;;;;;;10.00;8.00;;;;;21.81;95.23;100138.69;4959680;28;45229;-72
2022/10/23 11:14:19;;;;;;;;;8.33;8.00;;;;;21.87;93.86;100128.72;4958802;28;45393;-72
2022/10/23 11:16:49;;;;;;;;;8.67;8.00;;;;;21.97;94.04;100133.34;4958741;28;45282;-72
2022/10/23 11:19:17;;;;;;;;;9.00;9.00;;;;;22.06;94.60;100145.28;4944219;28;47277;-72
2022/10/23 11:21:52;;;;;;;;;9.67;9.33;;;;;22.13;94.39;100131.50;4942245;28;45563;-72
2022/10/23 11:24:38;;;;;;;;;7.33;7.00;;;;;22.22;94.85;100124.50;4970782;28;45338;-73
2022/10/23 11:27:21;;;;;;;;;9.00;6.33;;;;;22.26;93.26;100117.44;4952408;28;45431;-72
2022/10/23 11:30:21;;;;;;;;;5.67;5.00;;;;;22.34;94.57;100126.94;4957989;28;45420;-74